Pagrindinis puslapis
METAR-TAF:

METAR-TAF

Oro uostai :

Karakasas, Venesuela

platuma: 10-36N, ilguma: 066-59W, Aukštis: 43 m

Dabartinis oras

Ataskaita buvo paskelbta 51 minutes, ne 08:00 UTC
Vėjas 2 kt iš Rytų
Temperatūra 26°C
Drėgmė 84%
Slėgis 1013 hPa
Matomumas 10 km arba daugiau
Išsisklaidę debesys ne aukštis 1600 ft

METAR: SVMI 250800Z 09002KT 9999 SCT016 26/23 Q1013

Laikas: 04:51 (08:51 UTC)

Prognozė

Ataskaita buvo paskelbta 4 valandos ir 51 minutes, ne 04:00 UTC
Prognozė galioja nuo 25 metu 06 UTC su 26 metu 06 UTC
Vėjas 3 kt iš Pietryčių
Matomumas 10 km arba daugiau
Su prošvaistėmis ne aukštis 1600 ft
Tapsmas
nuo 25 metu 06 UTC su 25 metu 10 UTC
Vėjas 3 kt iš Šiaurės Rytų
Matomumas: 9000 m
Su prošvaistėmis ne aukštis 1600 ft

TAF: SVMI 250400Z 2506/2606 14003KT 9999 BKN016 TX32/18Z TN24/09Z BECMG 2506/2510 05003KT 9000 BKN016

Orai ataskaitas ir orų prognozės (METAR, TAF).

turimą stotys yra geltonos ir raudonos taškus žemėlapyje.

Perkelti pele per norėdami pamatyti stoties vardą.

Tada spustelėkite, norėdami matyti oro stebėjimo ir prognozės.

Norėdami pakeisti žemėlapį: spustelėkite ant žalios mygtukų su juodo kryžiaus žemyn,; žalią mygtuką su brūkšneliu, jei norite nutolinti; arba žalių rodyklių gretimoms žemėlapius.


METAR-TAF: